createdAt,value
2023-03-16T00:00:17.653Z,10.84
2023-03-16T00:02:44.482Z,10.97
2023-03-16T00:05:13.033Z,10.53
2023-03-16T00:07:42.256Z,11.26
2023-03-16T00:10:12.424Z,10.70
2023-03-16T00:12:39.656Z,10.74
2023-03-16T00:15:07.229Z,10.79
2023-03-16T00:17:34.805Z,10.63
2023-03-16T00:20:06.661Z,10.86
2023-03-16T00:22:33.571Z,11.16
2023-03-16T00:25:00.296Z,10.60
2023-03-16T00:27:29.551Z,11.11
2023-03-16T00:30:03.407Z,10.66
2023-03-16T00:32:33.611Z,10.50
2023-03-16T00:35:04.499Z,11.16
2023-03-16T00:37:33.019Z,11.24
2023-03-16T00:40:00.709Z,11.35
2023-03-16T00:42:59.303Z,10.62
2023-03-16T00:45:26.267Z,10.54
2023-03-16T00:47:54.246Z,10.47
2023-03-16T00:50:22.501Z,10.73
2023-03-16T00:52:49.240Z,11.11
2023-03-16T00:55:16.259Z,10.90
2023-03-16T00:57:42.935Z,10.68
2023-03-16T01:00:12.970Z,11.05
2023-03-16T01:02:40.045Z,10.66
2023-03-16T01:05:07.427Z,10.77
2023-03-16T01:07:36.351Z,11.10
2023-03-16T01:10:04.418Z,11.00
2023-03-16T01:12:31.304Z,11.00
2023-03-16T01:14:58.601Z,11.27
2023-03-16T01:17:26.842Z,11.07
2023-03-16T01:19:54.098Z,11.48
2023-03-16T01:22:21.589Z,11.12
2023-03-16T01:24:48.474Z,11.40
2023-03-16T01:27:15.628Z,11.24
2023-03-16T01:29:43.706Z,11.05
2023-03-16T01:32:12.131Z,10.63
2023-03-16T01:34:39.046Z,11.05
2023-03-16T01:37:06.466Z,11.06
2023-03-16T01:39:40.887Z,11.06
2023-03-16T01:42:09.115Z,11.27
2023-03-16T01:44:54.396Z,11.00
2023-03-16T01:47:23.252Z,11.28
2023-03-16T01:49:55.042Z,11.28
2023-03-16T01:52:28.157Z,11.36
2023-03-16T01:55:10.098Z,11.19
2023-03-16T01:57:40.583Z,10.61
2023-03-16T02:00:10.887Z,10.79
2023-03-16T02:02:55.670Z,11.17
2023-03-16T02:05:33.456Z,10.86
2023-03-16T02:08:01.849Z,10.85
2023-03-16T02:10:30.547Z,10.88
2023-03-16T02:12:58.786Z,10.88
2023-03-16T02:15:27.361Z,10.95
2023-03-16T02:17:54.473Z,10.95
2023-03-16T02:20:41.734Z,10.98
2023-03-16T02:23:18.406Z,11.12
2023-03-16T02:25:54.323Z,10.82
2023-03-16T02:28:58.667Z,11.09
2023-03-16T02:31:25.651Z,10.86
2023-03-16T02:33:54.866Z,11.31
2023-03-16T02:36:21.912Z,11.18
2023-03-16T02:38:48.710Z,11.37
2023-03-16T02:41:22.712Z,11.13
2023-03-16T02:44:00.113Z,11.03
2023-03-16T02:46:35.829Z,11.04
2023-03-16T02:49:16.383Z,11.00
2023-03-16T02:51:45.849Z,10.72
2023-03-16T02:54:12.846Z,11.00
2023-03-16T02:56:40.762Z,10.44
2023-03-16T02:59:09.063Z,10.52
2023-03-16T03:01:36.755Z,10.40
2023-03-16T03:04:04.759Z,10.41
2023-03-16T03:06:32.998Z,10.64
2023-03-16T03:09:02.174Z,11.03
2023-03-16T03:11:29.814Z,10.86
2023-03-16T03:13:56.669Z,10.68
2023-03-16T03:16:26.355Z,10.86
2023-03-16T03:18:54.905Z,10.48
2023-03-16T03:21:22.204Z,10.07
2023-03-16T03:23:48.932Z,10.53
2023-03-16T03:26:16.416Z,10.36
2023-03-16T03:28:44.840Z,10.59
2023-03-16T03:31:23.060Z,10.48
2023-03-16T03:33:51.241Z,10.38
2023-03-16T03:36:17.959Z,10.58
2023-03-16T03:38:45.988Z,10.66
2023-03-16T03:41:13.502Z,10.69
2023-03-16T03:43:41.052Z,10.70
2023-03-16T03:46:13.651Z,10.16
2023-03-16T03:48:40.507Z,10.37
2023-03-16T03:51:07.408Z,10.15
2023-03-16T03:53:43.306Z,10.06
2023-03-16T03:56:26.178Z,9.83
2023-03-16T03:58:53.460Z,10.14
2023-03-16T04:01:31.897Z,9.96
2023-03-16T04:03:58.866Z,10.28
2023-03-16T04:06:26.115Z,10.09
2023-03-16T04:08:54.518Z,10.23
2023-03-16T04:11:25.260Z,9.79
2023-03-16T04:13:53.474Z,10.02
2023-03-16T04:16:21.084Z,9.92
2023-03-16T04:18:51.818Z,9.82
2023-03-16T04:21:19.231Z,9.80
2023-03-16T04:23:48.849Z,9.81
2023-03-16T04:26:16.585Z,9.65
2023-03-16T04:28:45.304Z,9.97
2023-03-16T04:31:15.590Z,9.89
2023-03-16T04:33:46.075Z,9.66
2023-03-16T04:36:13.178Z,9.69
2023-03-16T04:38:42.338Z,9.81
2023-03-16T04:41:11.447Z,9.71
2023-03-16T04:43:44.817Z,9.66
2023-03-16T04:46:19.659Z,9.61
2023-03-16T04:48:46.539Z,10.21
2023-03-16T04:51:13.543Z,10.31
2023-03-16T04:53:47.177Z,10.18
2023-03-16T04:56:21.674Z,9.76
2023-03-16T04:58:56.899Z,10.05
2023-03-16T05:01:25.500Z,10.01
2023-03-16T05:03:59.537Z,9.91
2023-03-16T05:06:27.647Z,9.91
2023-03-16T05:08:54.679Z,10.08
2023-03-16T05:11:21.585Z,9.91
2023-03-16T05:13:55.850Z,9.93
2023-03-16T05:16:23.359Z,9.75
2023-03-16T05:18:52.943Z,10.19
2023-03-16T05:21:20.248Z,10.02
2023-03-16T05:23:59.767Z,10.04
2023-03-16T05:26:26.813Z,10.17
2023-03-16T05:28:54.271Z,10.09
2023-03-16T05:31:27.504Z,9.64
2023-03-16T05:33:58.278Z,9.96
2023-03-16T05:36:25.813Z,10.24
2023-03-16T05:38:56.693Z,10.48
2023-03-16T05:41:31.341Z,10.30
2023-03-16T05:44:24.886Z,10.26
2023-03-16T05:47:23.685Z,10.14
2023-03-16T05:49:57.423Z,10.54
2023-03-16T05:52:33.875Z,10.36
2023-03-16T05:55:06.770Z,10.38
2023-03-16T05:57:34.269Z,10.36
2023-03-16T06:00:02.252Z,10.23
2023-03-16T06:02:39.050Z,10.17
2023-03-16T06:05:07.473Z,9.97
2023-03-16T06:07:36.555Z,10.48
2023-03-16T06:10:05.182Z,10.54
2023-03-16T06:12:34.559Z,10.54
2023-03-16T06:15:02.419Z,10.23
2023-03-16T06:17:30.434Z,9.97
2023-03-16T06:19:57.898Z,10.23
2023-03-16T06:22:25.414Z,10.08
2023-03-16T06:24:52.587Z,9.81
2023-03-16T06:27:20.590Z,9.93
2023-03-16T06:30:07.132Z,9.91
2023-03-16T06:32:35.569Z,10.46
2023-03-16T06:35:03.820Z,9.98
2023-03-16T06:37:32.001Z,9.72
2023-03-16T06:40:02.282Z,10.00
2023-03-16T06:42:29.171Z,10.45
2023-03-16T06:44:57.533Z,9.82
2023-03-16T06:47:24.560Z,9.92
2023-03-16T06:49:52.082Z,10.25
2023-03-16T06:52:22.364Z,10.32
2023-03-16T06:54:54.077Z,9.73
2023-03-16T06:57:21.445Z,10.46
2023-03-16T06:59:50.062Z,10.26
2023-03-16T07:02:17.248Z,10.30
2023-03-16T07:04:44.203Z,10.35
2023-03-16T07:07:11.810Z,10.55
2023-03-16T07:09:41.552Z,10.19
2023-03-16T07:12:09.752Z,10.21
2023-03-16T07:14:37.619Z,10.24
2023-03-16T07:17:05.209Z,10.27
2023-03-16T07:19:32.314Z,10.61
2023-03-16T07:22:02.968Z,10.64
2023-03-16T07:24:33.338Z,10.62
2023-03-16T07:27:00.112Z,10.47
2023-03-16T07:29:30.513Z,10.72
2023-03-16T07:31:57.357Z,10.46
2023-03-16T07:34:32.025Z,10.60
2023-03-16T07:36:59.346Z,10.74
2023-03-16T07:39:29.888Z,10.99
2023-03-16T07:42:04.409Z,10.79
2023-03-16T07:44:46.840Z,11.13
2023-03-16T07:47:13.747Z,10.61
2023-03-16T07:49:42.784Z,10.78
2023-03-16T07:52:10.517Z,10.49
2023-03-16T07:54:40.929Z,10.99
2023-03-16T07:57:09.795Z,13.09
2023-03-16T07:59:41.677Z,13.77
2023-03-16T08:02:16.594Z,12.81
2023-03-16T08:04:44.764Z,12.79
2023-03-16T08:07:15.097Z,13.36
2023-03-16T08:10:08.266Z,12.42
2023-03-16T08:12:43.534Z,12.23
2023-03-16T08:15:11.787Z,12.03
2023-03-16T08:17:41.859Z,12.39
2023-03-16T08:20:15.267Z,12.65
2023-03-16T08:22:46.410Z,12.76
2023-03-16T08:25:19.853Z,12.11
2023-03-16T08:27:55.388Z,12.10
2023-03-16T08:30:23.057Z,12.57
2023-03-16T08:33:03.539Z,12.44
2023-03-16T08:35:30.518Z,12.73
2023-03-16T08:37:57.629Z,12.92
2023-03-16T08:40:25.540Z,12.94
2023-03-16T08:42:52.602Z,13.49
2023-03-16T08:45:20.092Z,12.97
2023-03-16T08:47:47.546Z,13.61
2023-03-16T08:50:15.745Z,14.03
2023-03-16T08:52:42.935Z,13.82
2023-03-16T08:55:11.061Z,13.06
2023-03-16T08:57:39.397Z,13.64
2023-03-16T09:00:13.860Z,13.22
2023-03-16T09:02:44.846Z,13.80
2023-03-16T09:05:18.415Z,13.92
2023-03-16T09:07:47.126Z,13.86
2023-03-16T09:10:16.565Z,13.86
2023-03-16T09:12:43.881Z,14.68
2023-03-16T09:15:12.437Z,14.18
2023-03-16T09:17:41.817Z,13.72
2023-03-16T09:20:21.802Z,13.48
2023-03-16T09:22:49.477Z,13.56
2023-03-16T09:25:16.432Z,13.65
2023-03-16T09:27:43.445Z,13.98
2023-03-16T09:30:13.272Z,14.05
2023-03-16T09:32:40.726Z,14.24
2023-03-16T09:35:07.954Z,13.25
2023-03-16T09:37:45.056Z,13.14
2023-03-16T09:40:23.848Z,13.46
2023-03-16T09:43:17.097Z,13.47
2023-03-16T09:46:02.228Z,13.91
2023-03-16T09:48:33.976Z,14.19
2023-03-16T09:51:02.535Z,14.32
2023-03-16T09:53:35.396Z,13.55
2023-03-16T09:56:06.894Z,13.42
2023-03-16T09:58:34.134Z,13.78
2023-03-16T10:01:13.417Z,13.47
2023-03-16T10:03:52.433Z,13.58
2023-03-16T10:06:19.438Z,13.84
2023-03-16T10:08:52.112Z,13.45
2023-03-16T10:11:29.446Z,13.64
2023-03-16T10:14:04.769Z,13.45
2023-03-16T10:16:40.258Z,14.08
2023-03-16T10:19:20.725Z,14.24
2023-03-16T10:21:49.583Z,14.20
2023-03-16T10:24:52.217Z,13.91
2023-03-16T10:27:22.769Z,14.23
2023-03-16T10:29:49.570Z,14.25
2023-03-16T10:32:18.934Z,14.01
2023-03-16T10:34:53.222Z,14.09
2023-03-16T10:37:20.417Z,14.30
2023-03-16T10:39:49.095Z,14.75
2023-03-16T10:42:17.800Z,14.07
2023-03-16T10:44:45.192Z,14.34
2023-03-16T10:47:32.708Z,14.50
2023-03-16T10:50:00.705Z,14.66
2023-03-16T10:52:37.971Z,14.82
2023-03-16T10:55:18.025Z,14.64
2023-03-16T10:57:53.694Z,14.27
2023-03-16T11:00:28.934Z,14.14
2023-03-16T11:02:56.950Z,14.06
2023-03-16T11:05:23.974Z,14.03
2023-03-16T11:07:57.776Z,14.30
2023-03-16T11:10:46.149Z,14.87
2023-03-16T11:13:21.029Z,14.58
2023-03-16T11:15:54.003Z,14.50
2023-03-16T11:18:33.204Z,14.43
2023-03-16T11:21:07.098Z,14.69
2023-03-16T11:23:35.641Z,14.64
2023-03-16T11:26:06.517Z,15.17
2023-03-16T11:28:37.655Z,14.92
2023-03-16T11:31:08.419Z,14.56
2023-03-16T11:33:35.437Z,15.21
2023-03-16T11:36:27.756Z,14.78
2023-03-16T11:39:19.264Z,14.82
2023-03-16T11:42:07.888Z,14.89
2023-03-16T11:45:01.653Z,14.85
2023-03-16T11:47:38.398Z,14.85
2023-03-16T11:50:18.505Z,14.75
2023-03-16T11:53:11.552Z,15.18
2023-03-16T11:55:59.688Z,15.11
2023-03-16T11:58:44.986Z,15.34
2023-03-16T12:01:23.901Z,15.03
2023-03-16T12:04:02.473Z,15.20
2023-03-16T12:06:33.734Z,14.94
2023-03-16T12:09:58.892Z,15.35
2023-03-16T12:12:34.428Z,15.14
2023-03-16T12:15:24.510Z,15.69
2023-03-16T12:17:55.619Z,15.48
2023-03-16T12:20:26.972Z,15.74
2023-03-16T12:22:59.570Z,15.87
2023-03-16T12:25:32.061Z,16.22
2023-03-16T12:28:02.575Z,15.46
2023-03-16T12:31:14.340Z,15.88
2023-03-16T12:33:59.899Z,15.29
2023-03-16T12:36:42.970Z,15.27
2023-03-16T12:39:20.927Z,15.15
2023-03-16T12:41:57.332Z,15.21
2023-03-16T12:44:55.424Z,15.60
2023-03-16T12:47:38.119Z,15.77
2023-03-16T12:50:11.384Z,15.70
2023-03-16T12:52:53.873Z,15.86
2023-03-16T12:55:24.684Z,16.15
2023-03-16T12:57:51.964Z,15.51
2023-03-16T13:00:19.837Z,15.92
2023-03-16T13:02:56.124Z,15.75
2023-03-16T13:05:33.074Z,15.44
2023-03-16T13:08:12.216Z,15.59
2023-03-16T13:10:39.565Z,16.48
2023-03-16T13:13:18.398Z,15.65
2023-03-16T13:15:49.645Z,15.45
2023-03-16T13:18:17.109Z,15.81
2023-03-16T13:20:56.532Z,15.57
2023-03-16T13:23:49.707Z,15.76
2023-03-16T13:26:18.764Z,15.69
2023-03-16T13:28:51.150Z,15.90
2023-03-16T13:31:47.948Z,15.45
2023-03-16T13:34:33.947Z,15.66
2023-03-16T13:37:04.341Z,15.77
2023-03-16T13:39:32.830Z,15.81
2023-03-16T13:42:09.818Z,15.44
2023-03-16T13:44:41.395Z,15.75
2023-03-16T13:47:12.801Z,15.65
2023-03-16T13:49:47.400Z,15.60
2023-03-16T13:52:32.355Z,16.10
2023-03-16T13:55:01.137Z,15.92
2023-03-16T13:57:36.889Z,16.04
2023-03-16T14:00:18.278Z,15.85
2023-03-16T14:02:47.336Z,15.98
2023-03-16T14:05:29.369Z,15.75
2023-03-16T14:07:57.358Z,15.69
2023-03-16T14:10:27.965Z,15.74
2023-03-16T14:12:57.324Z,15.81
2023-03-16T14:15:28.343Z,15.94
2023-03-16T14:18:12.004Z,15.93
2023-03-16T14:20:41.601Z,16.02
2023-03-16T14:23:24.939Z,15.89
2023-03-16T14:25:53.554Z,16.08
2023-03-16T14:28:27.265Z,16.08
2023-03-16T14:31:02.224Z,16.19
2023-03-16T14:33:34.547Z,16.34
2023-03-16T14:36:18.008Z,16.39
2023-03-16T14:38:48.917Z,16.04
2023-03-16T14:41:27.522Z,16.49
2023-03-16T14:43:59.648Z,16.73
2023-03-16T14:46:29.570Z,16.45
2023-03-16T14:49:03.692Z,16.12
2023-03-16T14:51:32.065Z,16.32
2023-03-16T14:53:58.793Z,16.83
2023-03-16T14:56:34.284Z,16.52
2023-03-16T14:59:01.284Z,16.52
2023-03-16T15:01:28.194Z,16.64
2023-03-16T15:03:55.275Z,16.68
2023-03-16T15:06:23.121Z,16.56
2023-03-16T15:08:53.920Z,16.57
2023-03-16T15:11:21.999Z,16.48
2023-03-16T15:13:49.190Z,16.79
2023-03-16T15:16:16.359Z,16.54
2023-03-16T15:18:43.350Z,16.65
2023-03-16T15:21:20.933Z,16.52
2023-03-16T15:23:48.268Z,16.95
2023-03-16T15:26:16.725Z,16.72
2023-03-16T15:28:44.054Z,16.60
2023-03-16T15:31:14.504Z,16.82
2023-03-16T15:33:42.180Z,16.88
2023-03-16T15:36:15.738Z,17.05
2023-03-16T15:38:46.181Z,16.85
2023-03-16T15:41:13.752Z,16.57
2023-03-16T15:43:40.755Z,16.62
2023-03-16T15:46:07.899Z,16.45
2023-03-16T15:48:34.817Z,16.23
2023-03-16T15:51:08.703Z,16.38
2023-03-16T15:53:42.412Z,16.43
2023-03-16T15:56:12.235Z,16.45
2023-03-16T15:58:41.872Z,16.52
2023-03-16T16:01:09.815Z,16.72
2023-03-16T16:03:36.591Z,16.34
2023-03-16T16:06:03.836Z,16.38
2023-03-16T16:08:30.906Z,16.45
2023-03-16T16:10:57.813Z,16.48
2023-03-16T16:13:43.208Z,16.20
2023-03-16T16:16:16.991Z,16.22
2023-03-16T16:18:43.940Z,16.68
2023-03-16T16:21:19.377Z,16.06
2023-03-16T16:23:46.638Z,16.26
2023-03-16T16:26:48.930Z,16.39
2023-03-16T16:29:24.314Z,16.55
2023-03-16T16:31:52.023Z,16.43
2023-03-16T16:34:27.336Z,16.40
2023-03-16T16:36:55.368Z,16.48
2023-03-16T16:39:22.744Z,15.97
2023-03-16T16:41:55.058Z,15.86
2023-03-16T16:44:27.836Z,15.94
2023-03-16T16:46:55.014Z,15.97
2023-03-16T16:49:28.276Z,15.87
2023-03-16T16:51:55.543Z,15.96
2023-03-16T16:54:25.023Z,15.95
2023-03-16T16:56:56.487Z,15.87
2023-03-16T16:59:25.561Z,15.50
2023-03-16T17:01:54.175Z,16.06
2023-03-16T17:04:23.841Z,16.08
2023-03-16T17:06:55.449Z,15.91
2023-03-16T17:09:23.577Z,15.83
2023-03-16T17:11:51.625Z,15.91
2023-03-16T17:14:20.486Z,15.89
2023-03-16T17:16:48.590Z,16.21
2023-03-16T17:19:21.708Z,16.00
2023-03-16T17:21:49.067Z,15.74
2023-03-16T17:24:16.954Z,15.73
2023-03-16T17:26:48.063Z,15.83
2023-03-16T17:29:25.743Z,15.67
2023-03-16T17:31:53.008Z,15.89
2023-03-16T17:34:24.888Z,15.64
2023-03-16T17:36:52.632Z,15.81
2023-03-16T17:39:21.216Z,15.97
2023-03-16T17:42:16.073Z,15.69
2023-03-16T17:44:45.704Z,15.51
2023-03-16T17:47:27.759Z,15.48
2023-03-16T17:49:55.118Z,15.74
2023-03-16T17:52:24.060Z,15.95
2023-03-16T17:54:52.223Z,15.36
2023-03-16T17:57:45.124Z,15.24
2023-03-16T18:00:30.834Z,15.80
2023-03-16T18:03:01.461Z,15.35
2023-03-16T18:05:32.861Z,15.35
2023-03-16T18:08:36.176Z,15.30
2023-03-16T18:11:12.576Z,15.09
2023-03-16T18:13:44.491Z,15.25
2023-03-16T18:16:21.084Z,14.75
2023-03-16T18:18:50.093Z,14.53
2023-03-16T18:21:25.745Z,14.74
2023-03-16T18:23:54.662Z,14.75
2023-03-16T18:26:22.205Z,14.68
2023-03-16T18:28:48.998Z,14.59
2023-03-16T18:31:27.862Z,14.44
2023-03-16T18:33:57.158Z,14.77
2023-03-16T18:36:33.083Z,14.77
2023-03-16T18:39:01.846Z,14.43
2023-03-16T18:41:30.714Z,14.88
2023-03-16T18:44:02.070Z,14.62
2023-03-16T18:46:31.447Z,14.57
2023-03-16T18:49:00.444Z,14.62
2023-03-16T18:51:27.630Z,15.04
2023-03-16T18:53:55.560Z,15.40
2023-03-16T18:56:28.039Z,15.03
2023-03-16T18:58:56.311Z,14.94
2023-03-16T19:01:28.627Z,15.26
2023-03-16T19:03:58.027Z,15.06
2023-03-16T19:06:30.592Z,14.74
2023-03-16T19:09:13.567Z,14.77
2023-03-16T19:11:44.436Z,14.18
2023-03-16T19:14:24.856Z,14.42
2023-03-16T19:16:52.452Z,14.77
2023-03-16T19:19:23.359Z,14.78
2023-03-16T19:21:52.738Z,14.97
2023-03-16T19:24:28.321Z,14.32
2023-03-16T19:26:55.481Z,14.77
2023-03-16T19:29:29.331Z,14.35
2023-03-16T19:31:57.221Z,14.84
2023-03-16T19:34:24.166Z,14.60
2023-03-16T19:36:52.454Z,14.33
2023-03-16T19:39:19.649Z,14.44
2023-03-16T19:41:50.354Z,14.18
2023-03-16T19:44:20.682Z,14.10
2023-03-16T19:46:52.753Z,14.23
2023-03-16T19:49:23.050Z,14.18
2023-03-16T19:51:51.672Z,13.98
2023-03-16T19:54:28.947Z,14.10
2023-03-16T19:56:59.209Z,14.49
2023-03-16T19:59:31.948Z,14.13
2023-03-16T20:01:59.240Z,14.36
2023-03-16T20:04:28.043Z,14.22
2023-03-16T20:06:55.415Z,14.15
2023-03-16T20:09:25.232Z,14.18
2023-03-16T20:11:53.464Z,14.23
2023-03-16T20:14:32.696Z,14.09
2023-03-16T20:16:59.875Z,14.08
2023-03-16T20:19:26.869Z,14.46
2023-03-16T20:21:54.094Z,14.37
2023-03-16T20:24:22.440Z,14.22
2023-03-16T20:26:51.564Z,14.23
2023-03-16T20:29:18.343Z,14.38
2023-03-16T20:31:45.958Z,13.89
2023-03-16T20:34:22.574Z,14.13
2023-03-16T20:36:49.956Z,14.31
2023-03-16T20:39:17.016Z,14.25
2023-03-16T20:41:46.888Z,14.27
2023-03-16T20:44:21.356Z,14.37
2023-03-16T20:46:48.209Z,14.46
2023-03-16T20:49:29.587Z,14.56
2023-03-16T20:51:57.157Z,14.74
2023-03-16T20:54:24.271Z,14.72
2023-03-16T20:56:51.731Z,14.43
2023-03-16T20:59:25.880Z,14.69
2023-03-16T21:01:56.569Z,14.58
2023-03-16T21:04:28.878Z,14.53
2023-03-16T21:07:03.215Z,14.44
2023-03-16T21:09:34.560Z,14.24
2023-03-16T21:12:01.700Z,14.66
2023-03-16T21:14:28.568Z,14.92
2023-03-16T21:19:38.814Z,14.35
2023-03-16T21:22:21.483Z,14.44
2023-03-16T21:24:48.613Z,14.06
2023-03-16T21:27:23.358Z,14.35
2023-03-16T21:29:50.718Z,14.08
2023-03-16T21:32:23.339Z,14.23
2023-03-16T21:34:50.595Z,14.31
2023-03-16T21:37:19.690Z,14.47
2023-03-16T21:39:48.284Z,14.77
2023-03-16T21:42:17.429Z,14.77
2023-03-16T21:44:44.734Z,14.72
2023-03-16T21:47:34.334Z,15.00
2023-03-16T21:50:06.171Z,14.76
2023-03-16T21:52:39.060Z,15.04
2023-03-16T21:55:06.837Z,14.93
2023-03-16T21:57:33.873Z,14.52
2023-03-16T22:00:00.913Z,14.60
2023-03-16T22:02:33.364Z,14.53
2023-03-16T22:05:00.444Z,14.73
2023-03-16T22:07:27.223Z,14.80
2023-03-16T22:09:54.284Z,14.89
2023-03-16T22:12:21.088Z,14.91
2023-03-16T22:14:48.581Z,14.68
2023-03-16T22:17:22.421Z,14.56
2023-03-16T22:19:49.233Z,14.77
2023-03-16T22:22:16.980Z,14.46
2023-03-16T22:24:43.834Z,14.71
2023-03-16T22:27:17.198Z,14.65
2023-03-16T22:29:44.905Z,14.65
2023-03-16T22:32:16.725Z,14.75
2023-03-16T22:34:47.328Z,15.04
2023-03-16T22:37:29.151Z,14.80
2023-03-16T22:39:58.584Z,14.51
2023-03-16T22:42:31.892Z,14.74
2023-03-16T22:44:59.201Z,14.68
2023-03-16T22:47:28.527Z,14.50
2023-03-16T22:49:55.501Z,14.25
2023-03-16T22:52:26.114Z,14.20
2023-03-16T22:54:52.984Z,14.32
2023-03-16T22:57:20.139Z,14.26
2023-03-16T22:59:47.621Z,14.41
2023-03-16T23:02:15.298Z,14.96
2023-03-16T23:04:42.587Z,14.69
2023-03-16T23:07:12.340Z,15.13
2023-03-16T23:09:39.567Z,15.21
2023-03-16T23:12:14.136Z,14.69
2023-03-16T23:14:41.594Z,14.73
2023-03-16T23:17:19.701Z,14.57
2023-03-16T23:19:48.255Z,14.80
2023-03-16T23:22:16.021Z,15.03
2023-03-16T23:24:43.433Z,14.44
2023-03-16T23:27:21.771Z,14.62
2023-03-16T23:29:48.828Z,14.66
2023-03-16T23:32:17.244Z,14.62
2023-03-16T23:34:44.638Z,14.21
2023-03-16T23:37:11.774Z,14.35
2023-03-16T23:39:38.551Z,14.56
2023-03-16T23:42:05.668Z,14.45
2023-03-16T23:44:32.892Z,14.52
2023-03-16T23:47:00.618Z,14.42
2023-03-16T23:49:30.926Z,14.23
2023-03-16T23:51:58.592Z,14.61
2023-03-16T23:54:28.702Z,14.58
2023-03-16T23:56:55.682Z,14.91
2023-03-16T23:59:23.589Z,14.60
